Time;durP1;ratioP1;P1;durP2;ratioP2;P2;SDS_P1;SDS_P2;PMS_P1;PMS_P2;Temp;Humidity;BMP_temperature;BMP_pressure;BME280_temperature;BME280_humidity;BME280_pressure;Samples;Min_cycle;Max_cycle;Signal;HPM_P1;HPM_P2
2022/01/05 00:01:26;;;;;;;1.80;1.70;;;;;;;7.10;100.00;94700.91;5071856;27;105174;-52
2022/01/05 00:03:53;;;;;;;1.60;1.50;;;;;;;7.09;100.00;94706.47;5052973;27;105391;-54
2022/01/05 00:06:20;;;;;;;2.20;2.03;;;;;;;7.14;100.00;94701.94;5072917;27;101849;-53
2022/01/05 00:08:58;;;;;;;1.60;1.50;;;;;;;7.11;100.00;94688.47;5071223;27;103709;-55
2022/01/05 00:11:26;;;;;;;1.50;1.43;;;;;;;7.06;100.00;94689.31;5070427;27;104258;-55
2022/01/05 00:13:52;;;;;;;1.60;1.50;;;;;;;7.01;100.00;94704.38;5071526;27;102012;-53
2022/01/05 00:16:21;;;;;;;1.37;1.37;;;;;;;6.97;100.00;94711.25;5088713;27;105138;-53
2022/01/05 00:18:58;;;;;;;1.70;1.60;;;;;;;6.85;100.00;94714.19;5073743;27;105394;-54
2022/01/05 00:21:26;;;;;;;1.20;1.20;;;;;;;6.83;100.00;94715.53;5070498;27;105060;-52
2022/01/05 00:23:53;;;;;;;1.43;1.43;;;;;;;6.72;100.00;94713.94;5070527;27;105840;-54
2022/01/05 00:26:20;;;;;;;2.40;2.20;;;;;;;6.72;100.00;94727.16;5071333;27;102042;-53
2022/01/05 00:28:58;;;;;;;3.10;2.63;;;;;;;6.67;100.00;94727.16;5070918;27;104751;-55
2022/01/05 00:31:27;;;;;;;1.90;1.80;;;;;;;6.65;100.00;94730.06;5071959;27;102800;-55
2022/01/05 00:33:54;;;;;;;1.63;1.53;;;;;;;6.57;100.00;94737.72;5070890;27;101889;-55
2022/01/05 00:36:22;;;;;;;1.90;1.80;;;;;;;6.50;100.00;94734.56;5070740;27;106082;-53
2022/01/05 00:38:52;;;;;;;1.70;1.60;;;;;;;6.49;100.00;94740.91;5070055;27;105352;-54
2022/01/05 00:41:31;;;;;;;2.17;2.07;;;;;;;6.46;100.00;94744.88;5074336;27;101913;-55
2022/01/05 00:43:58;;;;;;;2.07;1.97;;;;;;;6.41;100.00;94746.72;5069837;27;105011;-49
2022/01/05 00:46:27;;;;;;;2.17;2.07;;;;;;;6.42;100.00;94750.94;5070608;27;101914;-55
2022/01/05 00:48:56;;;;;;;2.17;2.07;;;;;;;6.40;100.00;94747.78;5070610;27;105205;-53
2022/01/05 00:51:23;;;;;;;2.43;2.23;;;;;;;6.36;100.00;94751.97;5069103;27;105415;-55
2022/01/05 00:53:50;;;;;;;2.50;2.30;;;;;;;6.33;100.00;94753.31;5072161;27;102020;-54
2022/01/05 00:56:17;;;;;;;2.40;2.30;;;;;;;6.30;100.00;94760.97;5070799;27;105435;-54
2022/01/05 00:58:44;;;;;;;3.80;2.70;;;;;;;6.33;100.00;94771.00;5069677;27;105420;-51
2022/01/05 01:01:11;;;;;;;2.47;2.37;;;;;;;6.25;100.00;94782.88;5075406;27;103385;-53
2022/01/05 01:03:40;;;;;;;2.73;2.53;;;;;;;6.24;100.00;94796.31;5069528;27;105555;-53
2022/01/05 01:06:08;;;;;;;2.90;2.70;;;;;;;6.19;100.00;94809.50;5070553;27;101843;-53
2022/01/05 01:08:36;;;;;;;2.50;2.40;;;;;;;6.08;100.00;94807.91;5070446;27;105004;-50
2022/01/05 01:11:18;;;;;;;2.80;2.60;;;;;;;6.02;100.00;94815.03;5071065;27;102753;-51
2022/01/05 01:13:45;;;;;;;2.80;2.60;;;;;;;5.87;100.00;94816.81;5070227;27;101970;-49
2022/01/05 01:16:11;;;;;;;2.93;2.73;;;;;;;5.80;100.00;94822.34;5070598;27;105315;-51
2022/01/05 01:18:53;;;;;;;3.37;3.10;;;;;;;5.75;100.00;94824.94;5069560;27;105807;-51
2022/01/05 01:21:19;;;;;;;3.13;2.93;;;;;;;5.68;100.00;94828.84;5070304;27;101942;-53
2022/01/05 01:23:55;;;;;;;3.57;3.27;;;;;;;5.61;100.00;94834.34;5073047;27;103630;-50
2022/01/05 01:26:22;;;;;;;3.80;3.50;;;;;;;5.60;100.00;94842.50;5070115;27;101894;-50
2022/01/05 01:29:22;;;;;;;3.47;3.20;;;;;;;5.57;100.00;94846.44;5070126;27;105147;-50
2022/01/05 01:31:49;;;;;;;4.10;3.80;;;;;;;5.54;100.00;94867.25;5069373;27;105723;-52
2022/01/05 01:34:19;;;;;;;4.37;4.00;;;;;;;5.51;100.00;94865.16;5070477;27;101878;-53
2022/01/05 01:36:46;;;;;;;3.90;3.60;;;;;;;5.46;100.00;94868.53;5069342;27;105130;-53
2022/01/05 01:39:14;;;;;;;4.30;3.90;;;;;;;5.47;100.00;94869.34;5069559;27;105700;-52
2022/01/05 01:41:41;;;;;;;3.90;3.60;;;;;;;5.39;100.00;94877.72;5069942;27;101851;-52
2022/01/05 01:44:08;;;;;;;3.80;3.50;;;;;;;5.39;100.00;94883.78;5070076;27;105094;-54
2022/01/05 01:46:35;;;;;;;3.87;3.53;;;;;;;5.35;100.00;94893.25;5072456;27;105380;-50
2022/01/05 01:49:10;;;;;;;3.90;3.60;;;;;;;5.40;100.00;94905.69;5069926;27;105592;-51
2022/01/05 01:51:40;;;;;;;3.50;3.20;;;;;;;5.40;100.00;94905.69;5069237;27;105789;-50
2022/01/05 01:54:08;;;;;;;2.70;2.50;;;;;;;5.37;100.00;94906.19;5069984;27;102124;-51
2022/01/05 01:56:36;;;;;;;2.70;2.50;;;;;;;5.33;100.00;94910.34;5070983;27;102615;-55
2022/01/05 02:02:27;;;;;;;0.90;0.90;;;;;;;5.23;100.00;94928.75;5069469;27;101868;-53
2022/01/05 02:04:54;;;;;;;0.67;0.67;;;;;;;5.15;100.00;94918.66;5069654;27;105537;-52
2022/01/05 02:07:33;;;;;;;0.50;0.50;;;;;;;5.10;100.00;94931.81;5068782;27;105684;-52
2022/01/05 02:10:00;;;;;;;0.40;0.40;;;;;;;5.06;100.00;94930.69;5073396;27;102004;-54
2022/01/05 02:12:30;;;;;;;0.50;0.50;;;;;;;5.00;100.00;94927.25;5068663;27;105371;-50
2022/01/05 02:14:57;;;;;;;0.40;0.40;;;;;;;4.94;100.00;94927.44;5071213;27;102112;-53
2022/01/05 02:17:52;;;;;;;0.40;0.40;;;;;;;4.85;100.00;94924.47;5069460;27;104802;-51
2022/01/05 02:20:21;;;;;;;0.40;0.40;;;;;;;4.80;100.00;94918.38;5086159;27;106321;-52
2022/01/05 02:22:51;;;;;;;0.40;0.40;;;;;;;4.84;100.00;94914.19;5069086;27;101900;-52
2022/01/05 02:25:17;;;;;;;0.40;0.40;;;;;;;4.72;100.00;94918.81;5069476;27;104918;-54
2022/01/05 02:27:52;;;;;;;0.40;0.40;;;;;;;4.69;100.00;94927.25;5070086;27;102872;-52
2022/01/05 02:30:22;;;;;;;0.30;0.30;;;;;;;4.59;100.00;94919.25;5071168;27;101800;-53
2022/01/05 02:32:50;;;;;;;0.27;0.27;;;;;;;4.59;100.00;94927.13;5072023;27;105146;-51
2022/01/05 02:35:18;;;;;;;0.20;0.20;;;;;;;4.53;100.00;94921.00;5069202;27;101867;-50
2022/01/05 02:37:53;;;;;;;0.40;0.40;;;;;;;4.52;100.00;94926.53;5086284;27;105529;-50
2022/01/05 02:40:22;;;;;;;0.30;0.30;;;;;;;4.51;100.00;94914.41;5068664;27;105494;-51
2022/01/05 02:42:50;;;;;;;0.40;0.40;;;;;;;4.55;100.00;94916.31;5068880;27;101973;-51
2022/01/05 02:45:17;;;;;;;0.33;0.33;;;;;;;4.48;100.00;94928.84;5070902;27;105058;-54
2022/01/05 02:47:45;;;;;;;0.47;0.47;;;;;;;4.49;100.00;94937.56;5072033;27;105495;-54
2022/01/05 02:50:14;;;;;;;0.30;0.30;;;;;;;4.50;100.00;94941.78;5072569;27;102061;-52
2022/01/05 02:52:41;;;;;;;0.40;0.40;;;;;;;4.44;100.00;94925.16;5072850;27;105069;-52
2022/01/05 02:55:12;;;;;;;0.50;0.50;;;;;;;4.44;100.00;94932.25;5077027;27;102610;-52
2022/01/05 02:57:39;;;;;;;0.40;0.40;;;;;;;4.47;100.00;94934.38;5052315;27;105233;-53
2022/01/05 03:00:08;;;;;;;0.40;0.40;;;;;;;4.47;100.00;94934.38;5053170;27;102590;-54
2022/01/05 03:02:36;;;;;;;0.40;0.40;;;;;;;4.52;100.00;94934.41;5071561;27;101993;-51
2022/01/05 03:05:03;;;;;;;0.60;0.60;;;;;;;4.49;100.00;94934.94;5072755;27;105181;-52
2022/01/05 03:07:37;;;;;;;0.50;0.50;;;;;;;4.42;100.00;94929.84;5071651;27;103827;-51
2022/01/05 03:10:05;;;;;;;0.50;0.50;;;;;;;4.42;100.00;94937.75;5072076;27;101860;-50
2022/01/05 03:12:41;;;;;;;0.50;0.50;;;;;;;4.45;100.00;94936.44;5072304;27;105521;-51
2022/01/05 03:15:10;;;;;;;0.50;0.50;;;;;;;4.41;100.00;94933.53;5075086;27;105488;-53
2022/01/05 03:17:42;;;;;;;0.40;0.40;;;;;;;4.42;100.00;94936.97;5072385;27;105187;-52
2022/01/05 03:20:11;;;;;;;0.40;0.40;;;;;;;4.44;100.00;94942.75;5072997;27;102923;-53
2022/01/05 03:22:39;;;;;;;0.40;0.40;;;;;;;4.42;100.00;94940.38;5072320;27;101947;-51
2022/01/05 03:25:15;;;;;;;0.30;0.30;;;;;;;4.44;100.00;94940.94;5072005;27;105223;-54
2022/01/05 03:27:59;;;;;;;0.70;0.70;;;;;;;4.41;100.00;94943.25;5072979;27;104537;-52
2022/01/05 03:30:28;;;;;;;0.60;0.60;;;;;;;4.44;100.00;94942.75;5073559;27;101862;-55
2022/01/05 03:33:13;;;;;;;0.70;0.70;;;;;;;4.42;100.00;94950.13;5073531;27;102462;-52
2022/01/05 03:35:43;;;;;;;0.50;0.50;;;;;;;4.48;100.00;94954.41;5071254;27;104489;-50
2022/01/05 03:38:12;;;;;;;0.30;0.30;;;;;;;4.39;100.00;94956.69;5075340;27;101805;-51
2022/01/05 03:41:04;;;;;;;0.40;0.40;;;;;;;4.44;100.00;94958.56;5072664;27;102475;-53
2022/01/05 03:43:32;;;;;;;0.30;0.30;;;;;;;4.45;100.00;94962.78;5072984;27;102173;-52
2022/01/05 03:45:59;;;;;;;0.37;0.37;;;;;;;4.42;100.00;94963.28;5072990;27;103021;-51
2022/01/05 03:48:32;;;;;;;0.37;0.37;;;;;;;4.43;100.00;94962.22;5072729;27;103152;-53
2022/01/05 03:50:59;;;;;;;0.20;0.20;;;;;;;4.39;100.00;94959.31;5073142;27;101899;-52
2022/01/05 03:53:26;;;;;;;0.30;0.30;;;;;;;4.47;100.00;94965.97;5071961;27;103637;-51
2022/01/05 03:55:53;;;;;;;0.33;0.33;;;;;;;4.30;100.00;94962.59;5071163;27;103314;-54
2022/01/05 03:58:26;;;;;;;0.20;0.20;;;;;;;4.32;100.00;94966.56;5071632;27;101874;-54
2022/01/05 04:00:55;;;;;;;0.40;0.40;;;;;;;4.37;100.00;94958.72;5075922;27;102754;-54
2022/01/05 04:03:22;;;;;;;0.87;0.40;;;;;;;4.31;100.00;94974.72;5071612;27;101978;-53
2022/01/05 04:05:49;;;;;;;0.30;0.30;;;;;;;4.28;100.00;94975.22;5071258;27;106166;-50
2022/01/05 04:08:16;;;;;;;0.40;0.40;;;;;;;4.27;100.00;94963.88;5070997;27;103842;-53
2022/01/05 04:10:44;;;;;;;0.40;0.40;;;;;;;4.31;100.00;94964.22;5071371;27;101927;-54
2022/01/05 04:13:12;;;;;;;0.30;0.30;;;;;;;4.28;100.00;94960.22;5073133;27;103145;-51
2022/01/05 04:15:39;;;;;;;0.20;0.20;;;;;;;4.26;100.00;94962.28;5070225;27;105028;-53
2022/01/05 04:18:13;;;;;;;0.23;0.23;;;;;;;4.27;100.00;94976.25;5071623;27;101952;-54
2022/01/05 04:20:41;;;;;;;0.40;0.40;;;;;;;4.28;100.00;94976.03;5071260;27;105863;-52
2022/01/05 04:23:08;;;;;;;0.40;0.40;;;;;;;4.26;100.00;94979.94;5074245;27;105345;-50
2022/01/05 04:25:35;;;;;;;0.30;0.30;;;;;;;4.24;100.00;94982.00;5070945;27;105570;-51
2022/01/05 04:28:05;;;;;;;0.30;0.30;;;;;;;4.31;100.00;94982.63;5070771;27;105770;-52
2022/01/05 04:30:33;;;;;;;0.23;0.23;;;;;;;4.29;100.00;94982.88;5071077;27;101784;-54
2022/01/05 04:33:00;;;;;;;0.30;0.30;;;;;;;4.28;100.00;94977.84;5071166;27;105596;-52
2022/01/05 04:35:30;;;;;;;0.30;0.30;;;;;;;4.27;100.00;94982.28;5070104;27;104392;-52
2022/01/05 04:38:00;;;;;;;0.50;0.30;;;;;;;4.25;100.00;94981.75;5070724;27;101889;-52
2022/01/05 04:40:42;;;;;;;0.30;0.30;;;;;;;4.27;100.00;94977.03;5072504;27;102986;-52
2022/01/05 04:43:10;;;;;;;0.30;0.30;;;;;;;4.28;100.00;94985.72;5070335;27;105460;-53
2022/01/05 04:45:37;;;;;;;0.30;0.30;;;;;;;4.33;100.00;94981.34;5057000;27;101881;-51
2022/01/05 04:48:12;;;;;;;0.30;0.30;;;;;;;4.34;100.00;94979.47;5070517;27;104230;-53
2022/01/05 04:50:42;;;;;;;0.20;0.20;;;;;;;4.36;100.00;94977.44;5070784;27;102221;-53
2022/01/05 04:53:11;;;;;;;0.30;0.30;;;;;;;4.33;100.00;94968.19;5071040;27;105380;-53
2022/01/05 04:55:38;;;;;;;0.40;0.40;;;;;;;4.36;100.00;94972.16;5069812;27;105649;-53
2022/01/05 04:58:12;;;;;;;0.40;0.40;;;;;;;4.37;100.00;94974.53;5070715;27;101828;-52
2022/01/05 05:00:39;;;;;;;0.40;0.40;;;;;;;4.35;100.00;94975.81;5070736;27;105704;-51
2022/01/05 05:03:06;;;;;;;0.40;0.40;;;;;;;4.35;100.00;94970.53;5070072;27;104046;-51
2022/01/05 05:05:34;;;;;;;0.33;0.33;;;;;;;4.34;100.00;94969.78;5070100;27;101902;-54
2022/01/05 05:08:07;;;;;;;0.40;0.40;;;;;;;4.34;100.00;94967.13;5073394;27;105201;-54
2022/01/05 05:10:38;;;;;;;0.30;0.30;;;;;;;4.39;100.00;94976.91;5070239;27;101946;-51
2022/01/05 05:13:09;;;;;;;0.30;0.30;;;;;;;4.35;100.00;94979.25;5087854;27;103741;-54
2022/01/05 05:15:37;;;;;;;0.40;0.40;;;;;;;4.38;100.00;94978.78;5069109;27;106501;-53
2022/01/05 05:18:05;;;;;;;0.57;0.40;;;;;;;4.38;100.00;94976.13;5070580;27;101907;-52
2022/01/05 05:20:33;;;;;;;0.57;0.57;;;;;;;4.36;100.00;94972.94;5069825;27;105410;-52
2022/01/05 05:23:01;;;;;;;0.40;0.40;;;;;;;4.36;100.00;94972.16;5069731;27;106080;-55
2022/01/05 05:25:31;;;;;;;0.87;0.43;;;;;;;4.31;100.00;94985.25;5069714;27;101951;-55
2022/01/05 05:28:25;;;;;;;0.53;0.53;;;;;;;4.32;100.00;94978.94;5073216;27;105582;-52
2022/01/05 05:30:52;;;;;;;0.30;0.30;;;;;;;4.35;100.00;94981.06;5049828;27;101981;-51
2022/01/05 05:33:20;;;;;;;0.40;0.40;;;;;;;4.31;100.00;94978.13;5049830;27;105608;-52
2022/01/05 05:35:47;;;;;;;0.40;0.40;;;;;;;4.38;100.00;94983.22;5068908;27;104956;-53
2022/01/05 05:38:30;;;;;;;0.40;0.40;;;;;;;4.31;100.00;94975.50;5069823;27;102029;-54
2022/01/05 05:41:14;;;;;;;0.40;0.40;;;;;;;4.30;100.00;94987.09;5070163;27;105005;-52
2022/01/05 05:43:41;;;;;;;0.40;0.40;;;;;;;4.30;100.00;94983.63;5070633;27;103219;-51
2022/01/05 05:46:09;;;;;;;0.43;0.43;;;;;;;4.27;100.00;94994.66;5069856;27;102351;-53
2022/01/05 05:48:38;;;;;;;0.50;0.50;;;;;;;4.33;100.00;94996.31;5071544;27;102982;-52
2022/01/05 05:51:05;;;;;;;0.60;0.60;;;;;;;4.30;100.00;94994.97;5071562;27;104089;-53
2022/01/05 05:53:32;;;;;;;0.30;0.30;;;;;;;4.31;100.00;94993.16;5070054;27;104796;-53
2022/01/05 05:56:00;;;;;;;0.40;0.40;;;;;;;4.28;100.00;95001.53;5069152;27;105770;-54
2022/01/05 05:58:30;;;;;;;0.40;0.40;;;;;;;4.29;100.00;94992.59;5049364;27;102014;-54
2022/01/05 06:00:57;;;;;;;0.40;0.40;;;;;;;4.29;100.00;94998.66;5049688;27;105142;-53
2022/01/05 06:03:25;;;;;;;0.40;0.40;;;;;;;4.29;100.00;94989.94;5048734;27;105349;-51
2022/01/05 06:05:51;;;;;;;0.40;0.40;;;;;;;4.32;100.00;95000.00;5066075;27;101996;-52
2022/01/05 06:08:42;;;;;;;0.30;0.30;;;;;;;4.27;100.00;94999.94;5069616;27;105965;-55
2022/01/05 06:11:33;;;;;;;0.30;0.30;;;;;;;4.28;100.00;94997.06;5069088;27;105276;-54
2022/01/05 06:14:02;;;;;;;0.53;0.40;;;;;;;4.30;100.00;94991.53;5073049;27;101789;-54
2022/01/05 06:16:29;;;;;;;0.50;0.50;;;;;;;4.30;100.00;95004.69;5069063;27;105864;-52
2022/01/05 06:19:04;;;;;;;0.47;0.40;;;;;;;4.28;100.00;94994.44;5069716;27;101892;-55
2022/01/05 06:21:31;;;;;;;1.80;0.50;;;;;;;4.27;100.00;94997.31;5073439;27;105496;-55
2022/01/05 06:23:58;;;;;;;0.47;0.47;;;;;;;4.27;100.00;95005.19;5072577;27;105967;-51
2022/01/05 06:26:27;;;;;;;0.50;0.50;;;;;;;4.21;100.00;95014.84;5073307;27;101903;-54
2022/01/05 06:29:02;;;;;;;0.60;0.60;;;;;;;4.17;100.00;95019.03;5073115;27;105014;-53
2022/01/05 06:31:29;;;;;;;0.60;0.60;;;;;;;4.20;100.00;95015.13;5052123;27;105358;-53
2022/01/05 06:33:56;;;;;;;0.40;0.40;;;;;;;4.24;100.00;95021.47;5054129;27;101817;-51
2022/01/05 06:36:23;;;;;;;0.80;0.40;;;;;;;4.25;100.00;95020.44;5055035;27;104908;-53
2022/01/05 06:38:51;;;;;;;0.50;0.50;;;;;;;4.29;100.00;95018.88;5065834;27;101852;-52
2022/01/05 06:41:19;;;;;;;0.60;0.60;;;;;;;4.30;100.00;95031.00;5073118;27;105173;-52
2022/01/05 06:43:46;;;;;;;0.67;0.67;;;;;;;4.31;100.00;95037.88;5072212;27;105769;-50
2022/01/05 06:46:15;;;;;;;1.80;0.60;;;;;;;4.30;100.00;95042.34;5072585;27;103529;-55
2022/01/05 06:49:02;;;;;;;0.53;0.53;;;;;;;4.37;100.00;95035.03;5072679;27;105258;-55
2022/01/05 06:51:28;;;;;;;0.40;0.40;;;;;;;4.33;100.00;95035.78;5073670;27;102953;-54
2022/01/05 06:53:57;;;;;;;0.53;0.53;;;;;;;4.28;100.00;95041.78;5072605;27;101923;-51
2022/01/05 06:56:24;;;;;;;0.40;0.40;;;;;;;4.25;100.00;95046.75;5072785;27;105599;-54
2022/01/05 06:58:53;;;;;;;0.60;0.60;;;;;;;4.26;100.00;95046.47;5075095;27;104610;-54
2022/01/05 07:01:22;;;;;;;0.40;0.40;;;;;;;4.29;100.00;95045.19;5072837;27;104745;-54
2022/01/05 07:03:49;;;;;;;0.70;0.70;;;;;;;4.24;100.00;95050.41;5071736;27;105459;-54
2022/01/05 07:06:15;;;;;;;0.60;0.60;;;;;;;4.22;100.00;95055.13;5072484;27;101925;-55
2022/01/05 07:08:42;;;;;;;0.50;0.50;;;;;;;4.22;100.00;95049.84;5072212;27;105117;-54
2022/01/05 07:11:09;;;;;;;0.73;0.73;;;;;;;4.25;100.00;95060.69;5071720;27;105527;-54
2022/01/05 07:13:36;;;;;;;0.50;0.50;;;;;;;4.24;100.00;95053.84;5072266;27;102277;-51
2022/01/05 07:16:03;;;;;;;0.60;0.60;;;;;;;4.27;100.00;95057.81;5068833;27;103926;-54
2022/01/05 07:19:11;;;;;;;0.50;0.50;;;;;;;4.22;100.00;95060.38;5071862;27;105752;-52
2022/01/05 07:21:39;;;;;;;0.57;0.50;;;;;;;4.21;100.00;95059.56;5075452;27;102106;-52
2022/01/05 07:24:11;;;;;;;0.70;0.70;;;;;;;4.24;100.00;95066.19;5071276;27;105162;-50
2022/01/05 07:26:39;;;;;;;0.57;0.50;;;;;;;4.31;100.00;95062.34;5072060;27;102135;-54
2022/01/05 07:29:16;;;;;;;1.03;0.90;;;;;;;4.41;100.00;95064.28;5072279;27;103675;-53
2022/01/05 07:31:43;;;;;;;3.07;1.43;;;;;;;4.40;100.00;95060.06;5071118;27;105324;-52
2022/01/05 07:34:13;;;;;;;0.73;0.73;;;;;;;4.42;100.00;95058.03;5071987;27;101927;-53
2022/01/05 07:36:42;;;;;;;0.70;0.70;;;;;;;4.44;100.00;95058.56;5071041;27;103948;-56
2022/01/05 07:39:09;;;;;;;1.93;0.60;;;;;;;4.46;100.00;95069.63;5054775;27;104191;-54
2022/01/05 07:41:39;;;;;;;1.13;0.70;;;;;;;4.46;100.00;95057.28;5075286;27;102114;-54
2022/01/05 07:44:08;;;;;;;0.70;0.70;;;;;;;4.49;100.00;95062.06;5071054;27;104896;-55
2022/01/05 07:46:35;;;;;;;0.87;0.80;;;;;;;4.49;100.00;95061.25;5049862;27;102016;-53
2022/01/05 07:49:29;;;;;;;1.00;1.00;;;;;;;4.50;100.00;95055.75;5051554;27;105286;-53
2022/01/05 07:51:58;;;;;;;0.80;0.80;;;;;;;4.52;100.00;95066.00;5050732;27;105417;-54
2022/01/05 07:54:26;;;;;;;0.57;0.57;;;;;;;4.49;100.00;95067.34;5052728;27;101982;-55
2022/01/05 07:56:53;;;;;;;1.57;0.70;;;;;;;4.51;100.00;95075.75;5071887;27;105085;-55
2022/01/05 07:59:35;;;;;;;0.50;0.50;;;;;;;4.50;100.00;95083.91;5072319;27;103238;-55
2022/01/05 08:02:02;;;;;;;0.80;0.80;;;;;;;4.54;100.00;95085.00;5063579;27;101861;-52
2022/01/05 08:04:29;;;;;;;1.30;1.20;;;;;;;4.54;100.00;95080.53;5075846;27;102443;-56
2022/01/05 08:06:59;;;;;;;1.47;1.10;;;;;;;4.50;100.00;95083.91;5073009;27;101920;-55
2022/01/05 08:09:29;;;;;;;1.30;1.20;;;;;;;4.54;100.00;95090.28;5071359;27;105179;-56
2022/01/05 08:12:47;;;;;;;1.27;1.17;;;;;;;4.56;100.00;95098.72;5070956;27;105755;-55
2022/01/05 08:15:15;;;;;;;1.07;0.60;;;;;;;4.55;100.00;95097.94;5071295;27;102086;-54
2022/01/05 08:17:54;;;;;;;0.90;0.63;;;;;;;4.59;100.00;95104.28;5071543;27;105868;-54
2022/01/05 08:20:22;;;;;;;0.77;0.77;;;;;;;4.63;100.00;95097.50;5070819;27;104153;-54
2022/01/05 08:22:51;;;;;;;0.87;0.70;;;;;;;4.64;100.00;95106.19;5071224;27;101968;-52
2022/01/05 08:25:20;;;;;;;0.77;0.77;;;;;;;4.63;100.00;95120.41;5070779;27;103682;-54
2022/01/05 08:27:53;;;;;;;0.70;0.70;;;;;;;4.65;100.00;95124.38;5074238;27;105295;-55
2022/01/05 08:30:21;;;;;;;1.50;1.40;;;;;;;4.69;100.00;95125.47;5071111;27;104985;-54
2022/01/05 08:32:49;;;;;;;0.67;0.67;;;;;;;4.70;100.00;95131.56;5071182;27;102843;-54
2022/01/05 08:35:17;;;;;;;1.10;1.00;;;;;;;4.79;100.00;95130.06;5070626;27;101868;-54
2022/01/05 08:37:47;;;;;;;2.93;1.10;;;;;;;4.75;100.00;95129.75;5071387;27;104132;-54
2022/01/05 08:40:17;;;;;;;0.67;0.67;;;;;;;4.78;100.00;95133.75;5071896;27;102835;-54
2022/01/05 08:42:44;;;;;;;1.20;0.70;;;;;;;4.74;100.00;95137.94;5071701;27;101649;-54
2022/01/05 08:45:11;;;;;;;1.20;0.70;;;;;;;4.71;100.00;95138.41;5070065;27;103647;-56
2022/01/05 08:47:39;;;;;;;1.03;0.73;;;;;;;4.73;100.00;95141.56;5071608;27;101945;-54
2022/01/05 08:50:07;;;;;;;0.90;0.90;;;;;;;4.73;100.00;95157.38;5075515;27;101943;-55
2022/01/05 08:52:34;;;;;;;0.60;0.60;;;;;;;4.74;100.00;95154.50;5071270;27;102425;-55
2022/01/05 08:55:01;;;;;;;0.93;0.90;;;;;;;4.74;100.00;95153.72;5071689;27;101877;-54
2022/01/05 08:57:29;;;;;;;0.70;0.70;;;;;;;4.74;100.00;95159.00;5072073;27;102344;-53
2022/01/05 08:59:56;;;;;;;0.70;0.70;;;;;;;4.75;100.00;95160.56;5071553;27;102458;-55
2022/01/05 09:02:23;;;;;;;1.00;0.70;;;;;;;4.77;100.00;95172.47;5071771;27;101913;-55
2022/01/05 09:04:52;;;;;;;0.60;0.60;;;;;;;4.75;100.00;95184.28;5071606;27;102401;-55
2022/01/05 09:07:20;;;;;;;0.57;0.57;;;;;;;4.73;100.00;95181.06;5069773;27;104066;-55
2022/01/05 09:09:47;;;;;;;0.70;0.60;;;;;;;4.76;100.00;95188.50;5070412;27;101812;-56
2022/01/05 09:12:15;;;;;;;0.50;0.50;;;;;;;4.74;100.00;95190.59;5074474;27;102566;-56
2022/01/05 09:14:44;;;;;;;1.43;0.60;;;;;;;4.72;100.00;95192.66;5070235;27;101894;-54
2022/01/05 09:17:11;;;;;;;0.70;0.70;;;;;;;4.76;100.00;95206.94;5070024;27;105325;-55
2022/01/05 09:19:38;;;;;;;0.67;0.67;;;;;;;4.77;100.00;95222.50;5069620;27;105803;-55
2022/01/05 09:22:05;;;;;;;0.40;0.40;;;;;;;4.76;100.00;95220.09;5071701;27;101843;-55
2022/01/05 09:24:34;;;;;;;0.80;0.70;;;;;;;4.74;100.00;95222.19;5070105;27;105624;-55
2022/01/05 09:27:04;;;;;;;1.17;0.80;;;;;;;4.66;100.00;95219.94;5069384;27;105091;-56
2022/01/05 09:29:33;;;;;;;0.50;0.50;;;;;;;4.64;100.00;95227.31;5069948;27;101795;-54
2022/01/05 09:32:05;;;;;;;0.70;0.70;;;;;;;4.63;100.00;95231.75;5069816;27;105095;-54
2022/01/05 09:34:32;;;;;;;0.70;0.70;;;;;;;4.63;100.00;95226.50;5072669;27;101742;-55
2022/01/05 09:37:05;;;;;;;1.03;1.03;;;;;;;4.61;100.00;95233.03;5069317;27;105365;-55
2022/01/05 09:42:17;;;;;;;1.70;1.40;;;;;;;4.63;100.00;95241.50;5069871;27;101833;-54
2022/01/05 09:44:45;;;;;;;1.63;1.37;;;;;;;4.59;100.00;95250.91;5069266;27;105140;-55
2022/01/05 09:47:42;;;;;;;0.90;0.90;;;;;;;4.61;100.00;95259.38;5068875;27;105371;-55
2022/01/05 09:50:10;;;;;;;1.60;0.80;;;;;;;4.64;100.00;95256.25;5069763;27;102096;-56
2022/01/05 09:52:39;;;;;;;1.00;1.00;;;;;;;4.62;100.00;95258.31;5070994;27;102924;-56
2022/01/05 09:55:08;;;;;;;0.97;0.80;;;;;;;4.62;100.00;95264.41;5071288;27;105052;-54
2022/01/05 09:57:36;;;;;;;2.20;0.90;;;;;;;4.61;100.00;95256.72;5069606;27;105013;-54
2022/01/05 10:00:06;;;;;;;1.30;0.90;;;;;;;4.57;100.00;95277.47;5068889;27;103837;-55
2022/01/05 10:02:40;;;;;;;0.73;0.73;;;;;;;4.58;100.00;95268.53;5067914;27;102090;-55
2022/01/05 10:05:10;;;;;;;0.87;0.70;;;;;;;4.57;100.00;95268.78;5069423;27;104734;-55
2022/01/05 10:07:38;;;;;;;0.90;0.90;;;;;;;4.50;100.00;95276.84;5070214;27;102574;-53
2022/01/05 10:10:06;;;;;;;1.20;1.10;;;;;;;4.49;100.00;95264.72;5069383;27;101958;-54
2022/01/05 10:12:33;;;;;;;1.47;1.00;;;;;;;4.49;100.00;95266.56;5069384;27;105177;-55
2022/01/05 10:15:02;;;;;;;0.80;0.80;;;;;;;4.48;100.00;95275.50;5068517;27;105779;-56
2022/01/05 10:17:32;;;;;;;0.70;0.70;;;;;;;4.48;100.00;95272.88;5072894;27;101981;-55
2022/01/05 10:20:05;;;;;;;0.90;0.90;;;;;;;4.49;100.00;95282.34;5068663;27;105320;-53
2022/01/05 10:22:35;;;;;;;0.70;0.70;;;;;;;4.47;100.00;95305.50;5071000;27;102171;-54
2022/01/05 10:25:05;;;;;;;0.67;0.67;;;;;;;4.43;100.00;95291.97;5070915;27;102381;-53
2022/01/05 10:27:33;;;;;;;0.70;0.70;;;;;;;4.38;100.00;95301.66;5069910;27;102642;-53
2022/01/05 10:30:04;;;;;;;0.80;0.80;;;;;;;4.40;100.00;95310.09;5068874;27;101850;-54
2022/01/05 10:32:32;;;;;;;0.77;0.77;;;;;;;4.31;100.00;95337.84;5070614;27;102805;-51
2022/01/05 10:35:08;;;;;;;0.60;0.60;;;;;;;4.00;100.00;95325.97;5069940;27;102893;-54
2022/01/05 10:37:36;;;;;;;0.70;0.70;;;;;;;3.97;100.00;95323.00;5068476;27;101828;-54
2022/01/05 10:40:14;;;;;;;0.70;0.70;;;;;;;3.95;100.00;95333.78;5071694;27;105464;-52
2022/01/05 10:42:42;;;;;;;0.60;0.60;;;;;;;3.87;100.00;95334.13;5069088;27;101862;-55
2022/01/05 10:45:11;;;;;;;1.23;0.90;;;;;;;3.92;100.00;95338.69;5070216;27;102748;-56
2022/01/05 10:47:41;;;;;;;0.97;0.97;;;;;;;3.91;100.00;95339.72;5068177;27;106642;-56
2022/01/05 10:50:20;;;;;;;0.93;0.93;;;;;;;3.97;100.00;95347.47;5068991;27;102008;-54
2022/01/05 10:52:55;;;;;;;1.37;1.27;;;;;;;4.01;100.00;95347.81;5070479;27;101674;-56
2022/01/05 10:55:24;;;;;;;1.93;1.50;;;;;;;3.99;100.00;95352.50;5069668;27;102567;-54
2022/01/05 10:58:00;;;;;;;1.37;1.27;;;;;;;4.02;100.00;95359.91;5070110;27;101858;-53
2022/01/05 11:00:39;;;;;;;2.47;1.83;;;;;;;4.03;100.00;95367.59;5068671;27;103629;-55
2022/01/05 11:03:25;;;;;;;2.10;1.83;;;;;;;3.96;100.00;95371.38;5071686;27;104096;-55
2022/01/05 11:06:09;;;;;;;1.73;1.63;;;;;;;3.91;100.00;95384.44;5070169;27;103508;-55
2022/01/05 11:08:49;;;;;;;1.93;1.63;;;;;;;3.85;100.00;95380.91;5071799;27;104261;-54
2022/01/05 11:11:37;;;;;;;3.60;2.83;;;;;;;3.87;100.00;95394.63;5072319;27;101789;-53
2022/01/05 11:14:04;;;;;;;2.83;2.40;;;;;;;3.85;100.00;95391.44;5073807;27;102817;-53
2022/01/05 11:16:32;;;;;;;2.77;2.20;;;;;;;3.80;100.00;95398.41;5072562;27;105049;-53
2022/01/05 11:19:21;;;;;;;1.73;1.63;;;;;;;3.76;100.00;95397.28;5073485;27;101891;-55
2022/01/05 11:22:06;;;;;;;1.50;1.40;;;;;;;3.64;100.00;95399.13;5066130;27;105729;-55
2022/01/05 11:24:36;;;;;;;1.30;1.30;;;;;;;3.56;100.00;95413.41;5070375;27;102890;-54
2022/01/05 11:27:04;;;;;;;1.80;1.40;;;;;;;3.59;100.00;95415.59;5076802;27;101942;-55
2022/01/05 11:29:33;;;;;;;1.43;1.33;;;;;;;3.54;100.00;95415.47;5072645;27;102903;-55
2022/01/05 11:32:01;;;;;;;1.40;1.30;;;;;;;3.46;100.00;95420.28;5073158;27;101998;-55
2022/01/05 11:34:29;;;;;;;2.93;1.50;;;;;;;3.45;100.00;95427.34;5073245;27;102315;-53
2022/01/05 11:36:56;;;;;;;1.63;1.50;;;;;;;3.39;100.00;95425.66;5071969;27;103010;-54
2022/01/05 11:39:26;;;;;;;1.33;1.33;;;;;;;3.41;100.00;95430.69;5073118;27;101870;-56
2022/01/05 11:41:54;;;;;;;1.80;1.70;;;;;;;3.46;100.00;95430.78;5071667;27;103714;-54
2022/01/05 11:44:21;;;;;;;1.73;1.60;;;;;;;3.51;100.00;95436.97;5070731;27;105325;-53
2022/01/05 11:46:49;;;;;;;1.90;1.80;;;;;;;3.57;100.00;95440.50;5075125;27;101995;-55